Time;durP1;ratioP1;P1;durP2;ratioP2;P2;SDS_P1;SDS_P2;PMS_P1;PMS_P2;Temp;Humidity;BMP_temperature;BMP_pressure;BME280_temperature;BME280_humidity;BME280_pressure;Samples;Min_cycle;Max_cycle;Signal;HPM_P1;HPM_P2
2024/03/22 00:00:19;;;;;;;366.63;349.07;;;10.50;99.90;;;;;;5075015;28;20484;-65
2024/03/22 00:02:46;;;;;;;368.40;352.27;;;10.50;99.90;;;;;;5073413;28;20220;-64
2024/03/22 00:05:13;;;;;;;368.33;350.77;;;10.50;99.90;;;;;;5081731;28;20976;-65
2024/03/22 00:07:39;;;;;;;383.20;365.37;;;10.50;99.90;;;;;;5072527;28;20454;-65
2024/03/22 00:10:07;;;;;;;366.43;349.73;;;10.50;99.90;;;;;;5072533;28;20806;-65
2024/03/22 00:12:33;;;;;;;371.17;354.07;;;10.50;99.90;;;;;;5072609;28;20586;-65
2024/03/22 00:14:59;;;;;;;362.90;346.53;;;10.50;99.90;;;;;;5072591;28;20454;-65
2024/03/22 00:17:25;;;;;;;371.03;353.57;;;10.50;99.90;;;;;;5080442;28;20204;-65
2024/03/22 00:19:53;;;;;;;380.03;361.73;;;10.50;99.90;;;;;;5078942;28;20455;-65
2024/03/22 00:22:19;;;;;;;376.03;358.87;;;10.50;99.90;;;;;;5074058;28;20235;-65
2024/03/22 00:24:46;;;;;;;367.13;349.83;;;10.50;99.90;;;;;;5077916;28;20853;-65
2024/03/22 00:27:12;;;;;;;387.50;369.57;;;10.50;99.90;;;;;;5074575;28;20219;-65
2024/03/22 00:29:39;;;;;;;396.70;378.13;;;10.50;99.90;;;;;;5076664;28;20978;-65
2024/03/22 00:32:07;;;;;;;398.93;380.47;;;10.50;99.90;;;;;;5075763;28;20477;-65
2024/03/22 00:34:34;;;;;;;412.50;392.83;;;10.50;99.90;;;;;;5072177;28;20521;-65
2024/03/22 00:37:01;;;;;;;423.37;402.27;;;10.50;99.90;;;;;;5080392;28;20503;-65
2024/03/22 00:39:28;;;;;;;432.90;411.70;;;10.40;99.90;;;;;;5072264;28;20888;-65
2024/03/22 00:41:54;;;;;;;440.90;418.50;;;10.40;99.90;;;;;;5072048;28;20508;-65
2024/03/22 00:44:20;;;;;;;446.83;423.57;;;10.40;99.90;;;;;;5071698;28;20835;-65
2024/03/22 00:46:46;;;;;;;431.50;410.37;;;10.40;99.90;;;;;;5071672;28;20985;-65
2024/03/22 00:49:13;;;;;;;422.07;401.40;;;10.40;99.90;;;;;;5080411;28;20454;-65
2024/03/22 00:51:39;;;;;;;378.33;361.23;;;10.50;99.90;;;;;;5080575;28;20225;-65
2024/03/22 00:54:07;;;;;;;364.20;347.40;;;10.50;99.90;;;;;;5080629;28;20557;-65
2024/03/22 00:56:33;;;;;;;340.87;325.03;;;10.50;99.90;;;;;;5080417;28;20446;-65
2024/03/22 00:59:00;;;;;;;303.40;290.00;;;10.50;99.90;;;;;;5071331;28;20472;-65
2024/03/22 01:01:26;;;;;;;296.83;282.73;;;10.50;99.90;;;;;;5080482;28;20243;-64
2024/03/22 01:03:52;;;;;;;295.70;282.30;;;10.50;99.90;;;;;;5072044;28;20881;-65
2024/03/22 01:06:23;;;;;;;322.20;307.80;;;10.50;99.90;;;;;;5080661;28;20210;-65
2024/03/22 01:08:51;;;;;;;328.57;314.37;;;10.50;99.90;;;;;;5071740;28;20508;-65
2024/03/22 01:11:18;;;;;;;316.27;302.07;;;10.50;99.90;;;;;;5071890;28;20472;-65
2024/03/22 01:13:45;;;;;;;307.57;293.93;;;10.50;99.90;;;;;;5081131;28;21031;-65
2024/03/22 01:16:11;;;;;;;314.60;300.47;;;10.60;99.90;;;;;;5087570;28;20475;-65
2024/03/22 01:18:38;;;;;;;321.17;306.30;;;10.60;99.90;;;;;;5075622;28;20900;-65
2024/03/22 01:21:05;;;;;;;320.73;306.07;;;10.60;99.90;;;;;;5076240;28;20227;-65
2024/03/22 01:23:32;;;;;;;315.63;299.90;;;10.50;99.90;;;;;;5075689;28;20479;-65
2024/03/22 01:25:58;;;;;;;307.37;293.83;;;10.50;99.90;;;;;;5084000;28;20442;-65
2024/03/22 01:28:26;;;;;;;295.57;281.97;;;10.50;99.90;;;;;;5075481;28;20457;-65
2024/03/22 01:30:52;;;;;;;299.77;286.07;;;10.50;99.90;;;;;;5075753;28;20204;-65
2024/03/22 01:33:19;;;;;;;307.10;293.30;;;10.40;99.90;;;;;;5075606;28;20469;-64
2024/03/22 01:35:44;;;;;;;325.83;311.23;;;10.40;99.90;;;;;;5076047;28;20457;-65
2024/03/22 01:38:11;;;;;;;325.43;311.00;;;10.40;99.90;;;;;;5083916;28;20448;-65
2024/03/22 01:40:37;;;;;;;328.60;313.03;;;10.40;99.90;;;;;;5075573;28;20196;-65
2024/03/22 01:43:04;;;;;;;343.60;328.23;;;10.40;99.90;;;;;;5075084;28;20481;-65
2024/03/22 01:45:33;;;;;;;375.27;358.00;;;10.40;99.90;;;;;;5075390;28;20206;-65
2024/03/22 01:48:00;;;;;;;389.83;372.33;;;10.30;99.90;;;;;;5075074;28;20457;-64
2024/03/22 01:50:27;;;;;;;371.10;354.00;;;10.30;99.90;;;;;;5074890;28;20511;-65
2024/03/22 01:52:53;;;;;;;367.33;350.13;;;10.30;99.90;;;;;;5075005;28;21071;-65
2024/03/22 01:55:19;;;;;;;346.57;331.20;;;10.30;99.90;;;;;;5075031;28;20462;-65
2024/03/22 01:57:47;;;;;;;351.07;333.97;;;10.30;99.90;;;;;;5083112;28;20450;-65
2024/03/22 02:00:13;;;;;;;358.87;342.90;;;10.30;99.90;;;;;;5083527;28;20453;-65
2024/03/22 02:02:42;;;;;;;357.63;341.47;;;10.30;99.90;;;;;;5074924;28;20489;-65
2024/03/22 02:05:15;;;;;;;346.33;330.93;;;10.30;99.90;;;;;;5074853;28;20454;-65
2024/03/22 02:07:42;;;;;;;352.83;336.93;;;10.40;99.90;;;;;;5079512;28;20506;-65
2024/03/22 02:10:10;;;;;;;347.30;332.23;;;10.40;99.90;;;;;;5086396;28;20449;-65
2024/03/22 02:12:37;;;;;;;344.10;329.07;;;10.40;99.90;;;;;;5083214;28;20461;-65
2024/03/22 02:15:04;;;;;;;370.57;354.17;;;10.40;99.90;;;;;;5074829;28;20842;-65
2024/03/22 02:17:31;;;;;;;376.80;359.70;;;10.40;99.90;;;;;;5075673;28;20466;-65
2024/03/22 02:19:58;;;;;;;393.33;375.47;;;10.50;99.90;;;;;;5075751;28;20458;-65
2024/03/22 02:22:25;;;;;;;399.63;381.53;;;10.40;99.90;;;;;;5074844;28;21004;-65
2024/03/22 02:24:52;;;;;;;405.87;387.57;;;10.40;99.90;;;;;;5074708;28;20476;-65
2024/03/22 02:27:19;;;;;;;400.73;382.43;;;10.50;99.90;;;;;;5075814;28;20958;-65
2024/03/22 02:29:45;;;;;;;401.77;383.37;;;10.50;99.90;;;;;;5080845;28;20454;-65
2024/03/22 02:32:12;;;;;;;404.63;385.70;;;10.50;99.90;;;;;;5074609;28;20980;-65
2024/03/22 02:34:38;;;;;;;411.60;392.20;;;10.50;99.90;;;;;;5074308;28;20220;-65
2024/03/22 02:37:04;;;;;;;415.47;395.97;;;10.50;99.90;;;;;;5082035;28;20457;-65
2024/03/22 02:39:30;;;;;;;415.23;395.40;;;10.50;99.90;;;;;;5074170;28;20204;-65
2024/03/22 02:41:58;;;;;;;406.70;387.83;;;10.50;99.90;;;;;;5081446;28;20492;-65
2024/03/22 02:44:24;;;;;;;406.57;388.00;;;10.50;99.90;;;;;;5074788;28;20224;-65
2024/03/22 02:46:51;;;;;;;401.23;383.13;;;10.50;99.90;;;;;;5074056;28;20459;-65
2024/03/22 02:49:17;;;;;;;389.97;371.80;;;10.60;99.90;;;;;;5082585;28;20208;-65
2024/03/22 02:51:43;;;;;;;394.47;376.77;;;10.60;99.90;;;;;;5074190;28;20464;-65
2024/03/22 02:54:09;;;;;;;382.23;365.77;;;10.60;99.90;;;;;;5082936;28;20246;-65
2024/03/22 02:56:36;;;;;;;375.70;359.30;;;10.60;99.90;;;;;;5079027;28;20453;-65
2024/03/22 02:59:03;;;;;;;356.90;341.30;;;10.60;99.90;;;;;;5085733;28;20700;-65
2024/03/22 03:01:30;;;;;;;333.60;319.00;;;10.60;99.90;;;;;;5082547;28;20504;-65
2024/03/22 03:03:55;;;;;;;328.90;314.87;;;10.70;99.90;;;;;;5073767;28;20849;-64
2024/03/22 03:06:22;;;;;;;329.10;314.87;;;10.70;99.90;;;;;;5076544;28;20529;-65
2024/03/22 03:08:48;;;;;;;328.13;313.63;;;10.70;99.90;;;;;;5079611;28;20203;-65
2024/03/22 03:11:15;;;;;;;334.27;320.07;;;10.70;99.90;;;;;;5082278;28;20450;-65
2024/03/22 03:13:41;;;;;;;327.50;312.90;;;10.60;99.90;;;;;;5078725;28;20215;-65
2024/03/22 03:16:09;;;;;;;324.07;310.40;;;10.60;99.90;;;;;;5085222;28;20518;-65
2024/03/22 03:18:35;;;;;;;331.23;317.23;;;10.50;99.90;;;;;;5073268;28;20454;-65
2024/03/22 03:21:02;;;;;;;340.00;325.43;;;10.50;99.90;;;;;;5073801;28;20458;-65
2024/03/22 03:23:28;;;;;;;345.43;331.17;;;10.40;99.90;;;;;;5081963;28;20216;-65
2024/03/22 03:25:54;;;;;;;353.30;337.87;;;10.30;99.90;;;;;;5073504;28;20975;-65
2024/03/22 03:28:20;;;;;;;356.33;340.43;;;10.30;99.90;;;;;;5081613;28;20576;-65
2024/03/22 03:30:47;;;;;;;358.03;342.27;;;10.20;99.90;;;;;;5073701;28;20472;-65
2024/03/22 03:33:14;;;;;;;391.03;373.47;;;10.10;99.90;;;;;;5081743;28;20307;-65
2024/03/22 03:35:41;;;;;;;397.20;379.13;;;10.10;99.90;;;;;;5073244;28;20462;-65
2024/03/22 03:38:07;;;;;;;419.93;399.43;;;10.00;99.90;;;;;;5072857;28;20457;-65
2024/03/22 03:40:33;;;;;;;435.13;414.30;;;10.00;99.90;;;;;;5077057;28;20454;-65
2024/03/22 03:42:59;;;;;;;436.10;414.03;;;10.00;99.90;;;;;;5077328;28;20232;-65
2024/03/22 03:45:26;;;;;;;435.23;413.03;;;10.00;99.90;;;;;;5081522;28;20950;-65
2024/03/22 03:47:52;;;;;;;426.10;405.43;;;10.10;99.90;;;;;;5081016;28;20204;-65
2024/03/22 03:50:20;;;;;;;415.93;396.03;;;10.00;99.90;;;;;;5083263;28;20450;-65
2024/03/22 03:52:45;;;;;;;425.30;404.20;;;10.00;99.90;;;;;;5080668;28;20216;-65
2024/03/22 03:55:12;;;;;;;437.60;415.60;;;10.00;99.90;;;;;;5081752;28;20453;-65
2024/03/22 03:57:38;;;;;;;424.03;402.53;;;9.90;99.90;;;;;;5072927;28;20196;-64
2024/03/22 04:00:06;;;;;;;410.40;390.23;;;9.90;99.90;;;;;;5081759;28;20550;-65
2024/03/22 04:02:32;;;;;;;420.10;398.33;;;9.80;99.90;;;;;;5072977;28;20228;-65
2024/03/22 04:05:00;;;;;;;443.03;419.53;;;9.70;99.90;;;;;;5073111;28;20879;-65
2024/03/22 04:07:29;;;;;;;445.90;421.70;;;9.70;99.90;;;;;;5086116;28;20200;-65
2024/03/22 04:09:55;;;;;;;460.53;434.87;;;9.60;99.90;;;;;;5079445;28;20580;-64
2024/03/22 04:12:21;;;;;;;458.93;433.47;;;9.60;99.90;;;;;;5073794;28;20450;-64
2024/03/22 04:14:48;;;;;;;465.20;437.20;;;9.60;99.90;;;;;;5081537;28;20541;-65
2024/03/22 04:17:14;;;;;;;460.07;432.87;;;9.60;99.90;;;;;;5080950;28;20206;-64
2024/03/22 04:19:41;;;;;;;466.47;438.10;;;9.60;99.90;;;;;;5072755;28;20841;-65
2024/03/22 04:22:06;;;;;;;468.90;440.90;;;9.60;99.90;;;;;;5072624;28;20848;-65
2024/03/22 04:24:35;;;;;;;461.37;433.17;;;9.60;99.90;;;;;;5080726;28;20482;-65
2024/03/22 04:27:01;;;;;;;458.03;429.93;;;9.60;99.90;;;;;;5072265;28;20545;-64
2024/03/22 04:29:28;;;;;;;463.70;435.63;;;9.60;99.90;;;;;;5072406;28;20828;-65
2024/03/22 04:31:53;;;;;;;467.00;438.20;;;9.70;99.90;;;;;;5079172;28;20483;-65
2024/03/22 04:34:20;;;;;;;454.73;428.50;;;9.70;99.90;;;;;;5073882;28;20478;-65
2024/03/22 04:36:46;;;;;;;449.03;422.60;;;9.70;99.90;;;;;;5077824;28;20645;-62
2024/03/22 04:39:13;;;;;;;450.63;425.00;;;9.80;99.90;;;;;;5074726;28;20462;-65
2024/03/22 04:41:41;;;;;;;451.40;425.93;;;9.90;99.90;;;;;;5072609;28;20262;-65
2024/03/22 04:44:08;;;;;;;445.20;420.90;;;10.00;99.90;;;;;;5071846;28;20477;-65
2024/03/22 04:46:34;;;;;;;447.63;423.43;;;10.00;99.90;;;;;;5071708;28;20461;-65
2024/03/22 04:49:01;;;;;;;444.87;421.27;;;10.10;99.90;;;;;;5071983;28;20524;-65
2024/03/22 04:51:27;;;;;;;445.63;422.33;;;10.20;99.90;;;;;;5080662;28;20454;-65
2024/03/22 04:53:53;;;;;;;440.90;418.40;;;10.20;99.90;;;;;;5080354;28;20476;-65
2024/03/22 04:56:20;;;;;;;438.07;415.30;;;10.20;99.90;;;;;;5072081;28;20210;-65
2024/03/22 04:58:48;;;;;;;422.43;401.67;;;10.30;99.90;;;;;;5079993;28;20457;-65
2024/03/22 05:01:14;;;;;;;417.53;397.00;;;10.40;99.90;;;;;;5081408;28;20468;-65
2024/03/22 05:03:41;;;;;;;395.03;375.60;;;10.40;99.90;;;;;;5079277;28;20506;-65
2024/03/22 05:06:07;;;;;;;391.53;373.17;;;10.50;99.90;;;;;;5071905;28;20458;-65
2024/03/22 05:08:33;;;;;;;374.17;357.03;;;10.50;99.90;;;;;;5075533;28;20449;-65
2024/03/22 05:11:00;;;;;;;376.37;359.37;;;10.50;99.90;;;;;;5076528;28;20544;-65
2024/03/22 05:13:26;;;;;;;353.80;337.30;;;10.60;99.90;;;;;;5080248;28;20220;-65
2024/03/22 05:15:54;;;;;;;347.97;332.17;;;10.60;99.90;;;;;;5072211;28;20754;-65
2024/03/22 05:18:20;;;;;;;345.47;329.60;;;10.70;99.90;;;;;;5071563;28;20196;-65
2024/03/22 05:20:47;;;;;;;318.07;303.67;;;10.70;99.90;;;;;;5080243;28;20946;-65
2024/03/22 05:23:13;;;;;;;295.03;281.83;;;10.80;99.90;;;;;;5080124;28;20231;-65
2024/03/22 05:25:39;;;;;;;278.17;266.43;;;10.90;99.90;;;;;;5079735;28;20454;-65
2024/03/22 05:28:05;;;;;;;263.77;252.37;;;11.00;99.90;;;;;;5079756;28;20200;-64
2024/03/22 05:30:32;;;;;;;245.57;234.50;;;11.00;99.90;;;;;;5079996;28;20469;-65
2024/03/22 05:32:59;;;;;;;229.97;219.87;;;11.10;99.90;;;;;;5071569;28;20325;-65
2024/03/22 05:35:27;;;;;;;212.30;202.90;;;11.10;99.90;;;;;;5071460;28;20454;-65
2024/03/22 05:37:53;;;;;;;217.03;207.53;;;11.20;99.90;;;;;;5077837;28;20445;-64
2024/03/22 05:40:20;;;;;;;220.03;210.17;;;11.20;99.90;;;;;;5072812;28;20460;-65
2024/03/22 05:42:46;;;;;;;202.40;193.27;;;11.30;99.90;;;;;;5079784;28;20219;-65
2024/03/22 05:45:12;;;;;;;190.90;182.13;;;11.40;99.90;;;;;;5072345;28;20958;-65
2024/03/22 05:47:38;;;;;;;174.93;166.67;;;11.50;99.90;;;;;;5078775;28;20201;-65
2024/03/22 05:50:08;;;;;;;154.20;146.73;;;11.70;99.90;;;;;;5071828;28;20545;-65
2024/03/22 05:52:34;;;;;;;130.37;123.77;;;11.70;99.90;;;;;;5079657;28;20192;-65
2024/03/22 05:55:01;;;;;;;118.87;112.23;;;11.90;99.90;;;;;;5079639;28;20520;-65
2024/03/22 05:57:26;;;;;;;99.00;92.97;;;11.90;99.90;;;;;;5073662;28;20468;-65
2024/03/22 05:59:54;;;;;;;92.83;86.63;;;12.00;99.90;;;;;;5087065;28;20453;-65
2024/03/22 06:02:19;;;;;;;81.43;76.43;;;12.00;99.90;;;;;;5084620;28;20277;-65
2024/03/22 06:04:47;;;;;;;70.83;66.00;;;12.10;99.90;;;;;;5080572;28;20461;-65
2024/03/22 06:07:16;;;;;;;73.07;67.77;;;12.10;99.90;;;;;;5085487;28;20204;-65
2024/03/22 06:09:46;;;;;;;71.37;66.23;;;12.10;99.90;;;;;;5087944;28;20465;-65
2024/03/22 06:12:12;;;;;;;68.37;62.47;;;12.10;99.90;;;;;;5090589;28;20446;-65
2024/03/22 06:14:39;;;;;;;68.20;62.37;;;12.20;99.40;;;;;;5084049;28;20476;-65
2024/03/22 06:17:05;;;;;;;68.20;62.80;;;12.20;99.20;;;;;;5074640;28;20549;-65
2024/03/22 06:19:32;;;;;;;66.13;60.50;;;12.20;98.60;;;;;;5074716;28;20537;-64
2024/03/22 06:21:58;;;;;;;65.77;61.00;;;12.20;98.60;;;;;;5082839;28;20481;-65
2024/03/22 06:24:26;;;;;;;62.83;58.27;;;12.30;98.60;;;;;;5083208;28;20473;-65
2024/03/22 06:26:52;;;;;;;66.03;61.00;;;12.30;98.60;;;;;;5074293;28;20480;-65
2024/03/22 06:29:19;;;;;;;61.17;56.53;;;12.40;98.70;;;;;;5082912;28;20450;-65
2024/03/22 06:31:45;;;;;;;57.07;52.00;;;12.40;98.60;;;;;;5082878;28;20682;-65
2024/03/22 06:34:11;;;;;;;63.23;57.83;;;12.50;98.70;;;;;;5074402;28;20477;-65
2024/03/22 06:36:37;;;;;;;64.37;59.33;;;12.50;98.70;;;;;;5074055;28;20200;-65
2024/03/22 06:39:06;;;;;;;55.87;51.07;;;12.60;98.70;;;;;;5073871;28;20454;-65
2024/03/22 06:41:34;;;;;;;50.30;45.57;;;12.70;98.70;;;;;;5074398;28;20752;-63
2024/03/22 06:44:01;;;;;;;53.87;48.67;;;12.80;98.80;;;;;;5074443;28;20690;-65
2024/03/22 06:46:27;;;;;;;49.60;40.67;;;12.80;98.80;;;;;;5074623;28;20454;-65
2024/03/22 06:48:54;;;;;;;48.20;42.73;;;12.90;98.80;;;;;;5082662;28;20941;-65
2024/03/22 06:51:20;;;;;;;48.40;38.73;;;13.00;98.80;;;;;;5076080;28;20961;-65
2024/03/22 06:53:47;;;;;;;41.67;34.80;;;13.10;98.90;;;;;;5080211;28;20477;-65
2024/03/22 06:56:13;;;;;;;43.30;31.07;;;13.30;98.90;;;;;;5073949;28;20454;-65
2024/03/22 06:58:41;;;;;;;48.87;28.80;;;13.30;98.60;;;;;;5081690;28;20992;-65
2024/03/22 07:01:07;;;;;;;45.40;29.53;;;13.40;96.00;;;;;;5073095;28;20287;-65
2024/03/22 07:03:34;;;;;;;42.67;27.50;;;13.50;95.80;;;;;;5084844;28;20565;-65
2024/03/22 07:06:00;;;;;;;34.80;25.23;;;13.60;94.90;;;;;;5078277;28;20200;-63
2024/03/22 07:08:27;;;;;;;41.57;24.60;;;13.60;92.50;;;;;;5072853;28;20846;-63
2024/03/22 07:10:54;;;;;;;37.03;24.90;;;13.60;92.60;;;;;;5072677;28;20456;-63
2024/03/22 07:13:21;;;;;;;34.77;25.93;;;13.60;94.20;;;;;;5073380;28;20833;-62
2024/03/22 07:15:49;;;;;;;38.37;24.17;;;13.60;94.10;;;;;;5081963;28;20458;-63
2024/03/22 07:18:16;;;;;;;37.57;26.17;;;13.60;92.50;;;;;;5073052;28;20462;-65
2024/03/22 07:20:42;;;;;;;35.77;22.40;;;13.50;92.50;;;;;;5080742;28;20462;-62
2024/03/22 07:23:09;;;;;;;39.10;23.50;;;13.60;92.50;;;;;;5080540;28;20500;-63
2024/03/22 07:25:35;;;;;;;37.70;23.13;;;13.60;92.50;;;;;;5073128;28;20957;-63
2024/03/22 07:28:01;;;;;;;35.53;23.13;;;13.70;92.50;;;;;;5072954;28;20461;-63
2024/03/22 07:30:27;;;;;;;36.73;23.27;;;13.90;92.60;;;;;;5076377;28;20213;-63
2024/03/22 07:32:55;;;;;;;31.33;19.73;;;14.00;92.60;;;;;;5077733;28;21001;-63
2024/03/22 07:35:21;;;;;;;34.20;18.87;;;14.10;92.50;;;;;;5083746;28;20197;-63
2024/03/22 07:37:48;;;;;;;30.10;19.00;;;14.20;90.90;;;;;;5078892;28;20462;-63
2024/03/22 07:40:14;;;;;;;31.03;19.20;;;14.20;88.60;;;;;;5073130;28;20200;-63
2024/03/22 07:42:41;;;;;;;37.07;18.60;;;14.30;88.60;;;;;;5072869;28;20496;-63
2024/03/22 07:45:08;;;;;;;28.47;17.47;;;14.50;85.20;;;;;;5071734;28;20452;-63
2024/03/22 07:47:35;;;;;;;27.07;17.93;;;14.50;81.10;;;;;;5071693;28;20519;-63
2024/03/22 07:50:03;;;;;;;25.10;15.47;;;14.50;81.10;;;;;;5080175;28;20455;-63
2024/03/22 07:52:30;;;;;;;25.27;16.13;;;14.50;81.00;;;;;;5072593;28;20584;-63
2024/03/22 07:54:56;;;;;;;26.60;15.20;;;14.60;81.10;;;;;;5079280;28;20453;-63
2024/03/22 07:57:23;;;;;;;24.27;16.00;;;14.70;81.20;;;;;;5081604;28;20453;-63
2024/03/22 07:59:49;;;;;;;25.47;14.90;;;14.80;81.20;;;;;;5071927;28;20253;-64
2024/03/22 08:02:15;;;;;;;25.40;15.30;;;15.00;81.50;;;;;;5071755;28;20487;-63
2024/03/22 08:04:41;;;;;;;32.43;14.43;;;15.20;81.60;;;;;;5076522;28;20225;-63
2024/03/22 08:07:09;;;;;;;21.13;14.00;;;15.40;81.70;;;;;;5083381;28;20453;-63
2024/03/22 08:09:35;;;;;;;22.03;12.87;;;15.50;74.10;;;;;;5075824;28;20195;-63
2024/03/22 08:12:02;;;;;;;25.38;16.30;;;15.60;74.30;;;;;;5083068;28;20458;-63
2024/03/22 08:14:28;;;;;;;24.00;14.37;;;15.60;73.70;;;;;;5079981;28;20719;-63
2024/03/22 08:16:55;;;;;;;24.23;12.67;;;15.50;72.20;;;;;;5071610;28;20460;-63
2024/03/22 08:19:21;;;;;;;20.93;13.67;;;15.30;71.60;;;;;;5080898;28;20202;-63
2024/03/22 08:21:47;;;;;;;20.93;14.07;;;15.30;73.90;;;;;;5072358;28;20454;-63
2024/03/22 08:24:14;;;;;;;23.37;15.20;;;15.40;69.90;;;;;;5072152;28;20227;-63
2024/03/22 08:26:45;;;;;;;28.40;16.00;;;15.30;73.70;;;;;;5080572;28;20978;-63
2024/03/22 08:29:11;;;;;;;19.33;13.40;;;15.40;73.90;;;;;;5071768;28;20466;-63
2024/03/22 08:31:38;;;;;;;23.23;14.07;;;15.30;73.80;;;;;;5072414;28;20501;-63
2024/03/22 08:34:05;;;;;;;24.80;14.57;;;15.30;71.80;;;;;;5072436;28;20467;-63
2024/03/22 08:36:32;;;;;;;24.43;13.57;;;15.40;73.30;;;;;;5072358;28;20919;-63
2024/03/22 08:38:58;;;;;;;25.67;14.70;;;15.40;68.90;;;;;;5071841;28;20460;-63
2024/03/22 08:41:26;;;;;;;24.40;14.97;;;15.60;69.60;;;;;;5074521;28;20458;-63
2024/03/22 08:43:51;;;;;;;29.43;15.63;;;15.50;66.50;;;;;;5077243;28;20232;-63
2024/03/22 08:46:20;;;;;;;22.20;13.83;;;15.60;66.10;;;;;;5072129;28;20833;-63
2024/03/22 08:48:46;;;;;;;26.87;14.33;;;15.80;66.30;;;;;;5071872;28;20208;-63
2024/03/22 08:51:13;;;;;;;24.67;14.20;;;15.90;66.40;;;;;;5071919;28;21019;-63
2024/03/22 08:53:39;;;;;;;29.33;15.70;;;15.80;66.30;;;;;;5080248;28;20470;-64
2024/03/22 08:56:06;;;;;;;23.27;13.70;;;16.00;66.50;;;;;;5071926;28;20455;-63
2024/03/22 08:58:33;;;;;;;30.23;15.53;;;15.90;66.40;;;;;;5071707;28;20226;-63
2024/03/22 09:01:00;;;;;;;21.83;13.80;;;15.70;66.10;;;;;;5079518;28;20457;-63
2024/03/22 09:03:25;;;;;;;25.60;13.67;;;15.90;66.40;;;;;;5072596;28;20485;-63
2024/03/22 09:05:53;;;;;;;26.07;12.60;;;16.00;66.50;;;;;;5071773;28;20460;-63
2024/03/22 09:08:21;;;;;;;26.73;16.00;;;16.00;66.30;;;;;;5079876;28;20196;-63
2024/03/22 09:10:47;;;;;;;20.50;13.47;;;16.20;66.40;;;;;;5080008;28;20507;-63
2024/03/22 09:13:14;;;;;;;21.83;13.50;;;16.50;58.90;;;;;;5080214;28;20473;-63
2024/03/22 09:15:41;;;;;;;21.83;13.70;;;16.20;58.40;;;;;;5071631;28;20693;-63
2024/03/22 09:18:07;;;;;;;26.27;15.33;;;16.10;59.10;;;;;;5071357;28;20462;-63
2024/03/22 09:20:34;;;;;;;19.40;12.63;;;16.30;58.90;;;;;;5072147;28;20815;-64
2024/03/22 09:23:01;;;;;;;26.80;12.67;;;16.60;66.90;;;;;;5071526;28;20909;-64
2024/03/22 09:25:27;;;;;;;18.67;12.50;;;16.90;54.50;;;;;;5082575;28;20863;-63
2024/03/22 09:27:54;;;;;;;33.67;14.30;;;16.80;50.20;;;;;;5076698;28;20878;-63
2024/03/22 09:30:20;;;;;;;20.50;12.10;;;16.80;50.30;;;;;;5081883;28;20537;-63
2024/03/22 09:32:48;;;;;;;25.53;13.73;;;16.60;50.90;;;;;;5078411;28;20496;-64
2024/03/22 09:35:14;;;;;;;24.50;13.00;;;16.60;55.20;;;;;;5075659;28;20291;-63
2024/03/22 09:37:41;;;;;;;20.67;14.30;;;16.60;50.90;;;;;;5075190;28;20511;-63
2024/03/22 09:40:08;;;;;;;23.07;13.73;;;16.50;51.60;;;;;;5075314;28;20452;-63
2024/03/22 09:42:38;;;;;;;27.73;12.90;;;16.50;50.00;;;;;;5079215;28;20877;-64
2024/03/22 09:45:07;;;;;;;29.93;12.13;;;16.80;50.20;;;;;;5079436;28;20579;-63
2024/03/22 09:47:35;;;;;;;21.63;14.97;;;16.90;50.40;;;;;;5075047;28;20458;-64
2024/03/22 09:50:06;;;;;;;19.90;11.80;;;16.90;50.30;;;;;;5075445;28;20454;-63
2024/03/22 09:52:34;;;;;;;21.80;13.93;;;17.10;50.50;;;;;;5078776;28;20453;-63
2024/03/22 09:54:59;;;;;;;20.43;11.20;;;16.90;50.30;;;;;;5081903;28;20456;-62
2024/03/22 09:57:27;;;;;;;24.60;12.60;;;16.80;50.20;;;;;;5090781;28;20543;-63
2024/03/22 09:59:54;;;;;;;22.27;13.27;;;16.60;50.10;;;;;;5092451;28;20235;-63
2024/03/22 10:02:22;;;;;;;23.10;13.37;;;16.80;50.30;;;;;;5088177;28;20453;-63
2024/03/22 10:04:50;;;;;;;20.57;13.53;;;16.70;50.80;;;;;;5088862;28;20450;-63
2024/03/22 10:07:18;;;;;;;18.70;12.17;;;16.40;49.80;;;;;;5085237;28;20465;-63
2024/03/22 10:09:45;;;;;;;21.30;13.33;;;16.40;55.20;;;;;;5080484;28;20541;-64
2024/03/22 10:12:11;;;;;;;26.03;13.73;;;16.30;51.10;;;;;;5074925;28;20458;-63
2024/03/22 10:14:40;;;;;;;20.93;12.77;;;16.10;51.30;;;;;;5074856;28;20477;-63
2024/03/22 10:17:07;;;;;;;29.37;15.10;;;16.10;49.60;;;;;;5082827;28;20457;-63
2024/03/22 10:19:33;;;;;;;23.80;13.67;;;16.00;57.70;;;;;;5074815;28;20507;-63
2024/03/22 10:22:01;;;;;;;27.13;14.20;;;16.10;50.90;;;;;;5082973;28;20450;-63
2024/03/22 10:24:28;;;;;;;23.00;13.80;;;16.30;57.10;;;;;;5083007;28;20242;-63
2024/03/22 10:26:55;;;;;;;22.87;15.77;;;16.30;50.30;;;;;;5074709;28;20497;-63
2024/03/22 10:29:22;;;;;;;26.07;14.40;;;16.40;49.80;;;;;;5083086;28;20941;-63
2024/03/22 10:31:49;;;;;;;33.90;16.97;;;16.30;50.70;;;;;;5082805;28;20465;-64
2024/03/22 10:34:16;;;;;;;27.70;15.60;;;16.10;49.60;;;;;;5074052;28;20984;-63
2024/03/22 10:36:44;;;;;;;29.10;16.93;;;16.20;49.70;;;;;;5082952;28;20458;-63
2024/03/22 10:39:12;;;;;;;27.43;18.57;;;16.10;49.60;;;;;;5082411;28;20465;-64
2024/03/22 10:41:40;;;;;;;37.43;18.20;;;16.40;49.80;;;;;;5078875;28;20465;-63
2024/03/22 10:44:08;;;;;;;27.60;16.57;;;16.70;53.90;;;;;;5076657;28;20482;-62
2024/03/22 10:46:36;;;;;;;26.33;15.20;;;16.50;50.20;;;;;;5085605;28;20528;-64
2024/03/22 10:49:04;;;;;;;30.40;17.53;;;16.40;49.90;;;;;;5078080;28;20458;-63
2024/03/22 10:51:32;;;;;;;28.10;17.63;;;16.40;50.30;;;;;;5074228;28;20748;-63
2024/03/22 10:54:00;;;;;;;26.53;17.27;;;16.20;49.70;;;;;;5074000;28;20855;-64
2024/03/22 10:56:28;;;;;;;23.50;16.90;;;16.20;49.70;;;;;;5082334;28;21035;-63
2024/03/22 10:58:55;;;;;;;25.70;18.37;;;16.10;50.50;;;;;;5080290;28;20450;-63
2024/03/22 11:01:33;;;;;;;28.33;19.87;;;16.00;49.50;;;;;;5083553;28;20464;-64
2024/03/22 11:04:03;;;;;;;28.70;18.10;;;15.90;57.90;;;;;;5073668;28;20990;-63
2024/03/22 11:06:32;;;;;;;26.47;18.23;;;15.80;58.70;;;;;;5082189;28;20458;-63
2024/03/22 11:08:59;;;;;;;27.03;17.63;;;15.60;57.80;;;;;;5073373;28;20450;-63
2024/03/22 11:11:29;;;;;;;39.07;19.07;;;15.40;57.70;;;;;;5076221;28;20462;-63
2024/03/22 11:13:56;;;;;;;31.43;18.30;;;15.60;58.00;;;;;;5078786;28;20470;-63
2024/03/22 11:16:23;;;;;;;32.27;17.83;;;15.80;57.90;;;;;;5082046;28;20552;-63
2024/03/22 11:18:49;;;;;;;27.63;19.10;;;16.20;58.50;;;;;;5081725;28;20455;-62
2024/03/22 11:21:16;;;;;;;30.37;19.57;;;16.40;58.60;;;;;;5073573;28;20461;-63
2024/03/22 11:23:45;;;;;;;30.30;18.17;;;16.60;50.10;;;;;;5073173;28;20228;-63
2024/03/22 11:26:12;;;;;;;33.37;19.37;;;16.80;50.20;;;;;;5073152;28;20463;-63
2024/03/22 11:28:38;;;;;;;32.83;18.57;;;16.90;50.30;;;;;;5073110;28;20855;-63
2024/03/22 11:31:06;;;;;;;29.53;18.43;;;16.60;50.10;;;;;;5073180;28;20472;-63
2024/03/22 11:33:32;;;;;;;27.73;17.50;;;17.00;50.50;;;;;;5073139;28;20259;-64
2024/03/22 11:36:00;;;;;;;32.27;19.87;;;17.10;50.40;;;;;;5073199;28;20450;-64
2024/03/22 11:38:27;;;;;;;29.50;17.60;;;17.30;50.50;;;;;;5072797;28;20446;-63
2024/03/22 11:40:55;;;;;;;30.43;17.83;;;17.20;41.80;;;;;;5072977;28;20934;-63
2024/03/22 11:43:21;;;;;;;27.33;18.30;;;17.40;42.00;;;;;;5072641;28;20478;-63
2024/03/22 11:45:48;;;;;;;27.00;18.00;;;17.50;50.40;;;;;;5081431;28;20454;-64
2024/03/22 11:48:17;;;;;;;29.60;17.07;;;17.40;42.00;;;;;;5082014;28;20817;-63
2024/03/22 11:50:43;;;;;;;26.07;16.80;;;17.20;41.80;;;;;;5079824;28;20938;-63
2024/03/22 11:53:09;;;;;;;23.93;16.30;;;17.00;41.20;;;;;;5081247;28;20477;-63
2024/03/22 11:55:36;;;;;;;20.10;14.37;;;17.00;33.40;;;;;;5080488;28;20200;-63
2024/03/22 11:58:02;;;;;;;24.43;14.90;;;17.10;32.60;;;;;;5072552;28;20492;-64
2024/03/22 12:00:29;;;;;;;24.97;16.70;;;17.00;32.50;;;;;;5084191;28;20563;-64
2024/03/22 12:02:55;;;;;;;25.77;16.30;;;17.20;32.70;;;;;;5077970;28;20524;-64
2024/03/22 12:05:23;;;;;;;24.70;15.10;;;17.10;32.60;;;;;;5072584;28;20878;-63
2024/03/22 12:07:52;;;;;;;25.63;15.60;;;16.90;32.40;;;;;;5080590;28;20458;-64
2024/03/22 12:10:18;;;;;;;25.43;14.83;;;16.80;32.30;;;;;;5072426;28;20458;-63
2024/03/22 12:12:44;;;;;;;23.83;14.13;;;16.50;32.10;;;;;;5072551;28;20478;-63
2024/03/22 12:15:11;;;;;;;19.27;13.00;;;16.40;32.00;;;;;;5080943;28;20196;-63